createdAt,value
2019-01-25T00:01:42.654Z,26.73
2019-01-25T00:04:09.563Z,26.77
2019-01-25T00:06:36.946Z,28.05
2019-01-25T00:09:08.167Z,26.23
2019-01-25T00:11:35.547Z,28.20
2019-01-25T00:14:02.991Z,29.10
2019-01-25T00:16:30.158Z,27.58
2019-01-25T00:18:58.455Z,27.90
2019-01-25T00:21:25.762Z,27.95
2019-01-25T00:23:53.310Z,28.10
2019-01-25T00:26:20.832Z,29.12
2019-01-25T00:28:48.081Z,27.73
2019-01-25T00:31:15.515Z,27.58
2019-01-25T00:33:42.682Z,26.48
2019-01-25T00:36:09.649Z,26.33
2019-01-25T00:38:43.331Z,25.50
2019-01-25T00:41:10.621Z,26.90
2019-01-25T00:43:37.766Z,25.72
2019-01-25T00:46:04.782Z,26.37
2019-01-25T00:48:32.150Z,25.30
2019-01-25T00:50:59.271Z,26.77
2019-01-25T00:53:26.319Z,26.50
2019-01-25T00:55:53.335Z,24.72
2019-01-25T00:58:20.736Z,26.90
2019-01-25T01:00:47.920Z,28.30
2019-01-25T01:03:15.429Z,26.30
2019-01-25T01:05:42.695Z,27.20
2019-01-25T01:08:09.588Z,27.07
2019-01-25T01:10:36.816Z,26.35
2019-01-25T01:13:04.226Z,27.00
2019-01-25T01:15:31.512Z,28.40
2019-01-25T01:17:59.110Z,27.13
2019-01-25T01:20:26.371Z,27.32
2019-01-25T01:22:53.970Z,28.20
2019-01-25T01:25:21.344Z,25.95
2019-01-25T01:27:48.591Z,27.07
2019-01-25T01:30:23.229Z,27.82
2019-01-25T01:32:51.359Z,26.42
2019-01-25T01:35:18.526Z,27.93
2019-01-25T01:37:45.910Z,27.82
2019-01-25T01:40:21.715Z,26.68
2019-01-25T01:42:45.213Z,27.70
2019-01-25T01:45:13.495Z,27.82
2019-01-25T01:47:40.648Z,28.23
2019-01-25T01:50:09.607Z,26.50
2019-01-25T01:52:37.319Z,29.02
2019-01-25T01:55:05.279Z,28.47
2019-01-25T01:57:32.364Z,27.30
2019-01-25T01:59:59.963Z,28.73
2019-01-25T02:02:28.143Z,28.23
2019-01-25T02:04:55.151Z,27.77
2019-01-25T02:07:22.289Z,30.55
2019-01-25T02:09:49.184Z,29.10
2019-01-25T02:12:16.586Z,30.70
2019-01-25T02:14:43.799Z,28.62
2019-01-25T02:17:10.811Z,29.00
2019-01-25T02:19:38.698Z,29.77
2019-01-25T02:22:05.942Z,28.77
2019-01-25T02:24:33.206Z,29.05
2019-01-25T02:27:00.559Z,28.77
2019-01-25T02:29:28.124Z,27.07
2019-01-25T02:31:55.535Z,30.00
2019-01-25T02:34:22.473Z,29.25
2019-01-25T02:36:49.926Z,29.70
2019-01-25T02:39:16.947Z,29.98
2019-01-25T02:41:44.173Z,31.97
2019-01-25T02:44:12.389Z,30.15
2019-01-25T02:46:39.912Z,31.05
2019-01-25T02:49:07.020Z,30.05
2019-01-25T02:51:34.304Z,29.95
2019-01-25T02:54:01.259Z,30.10
2019-01-25T02:56:28.611Z,29.37
2019-01-25T02:58:55.836Z,30.12
2019-01-25T03:01:23.123Z,29.32
2019-01-25T03:03:50.370Z,31.00
2019-01-25T03:06:17.363Z,30.05
2019-01-25T03:08:44.795Z,30.68
2019-01-25T03:11:12.039Z,31.37
2019-01-25T03:13:39.000Z,31.75
2019-01-25T03:16:06.325Z,31.12
2019-01-25T03:18:46.565Z,30.52
2019-01-25T03:21:14.014Z,31.45
2019-01-25T03:23:41.788Z,31.77
2019-01-25T03:26:09.597Z,30.92
2019-01-25T03:28:36.539Z,31.45
2019-01-25T03:31:03.665Z,31.73
2019-01-25T03:33:31.538Z,30.77
2019-01-25T03:35:59.035Z,32.67
2019-01-25T03:38:26.727Z,30.88
2019-01-25T03:40:55.595Z,32.03
2019-01-25T03:43:23.445Z,31.80
2019-01-25T03:45:50.707Z,31.42
2019-01-25T03:48:18.053Z,32.45
2019-01-25T03:50:45.151Z,31.57
2019-01-25T03:53:12.707Z,31.68
2019-01-25T03:55:39.966Z,30.80
2019-01-25T03:58:07.479Z,29.67
2019-01-25T04:00:34.958Z,31.50
2019-01-25T04:03:03.451Z,30.20
2019-01-25T04:05:30.981Z,29.52
2019-01-25T04:07:58.346Z,29.35
2019-01-25T04:10:27.441Z,30.75
2019-01-25T04:12:54.958Z,30.00
2019-01-25T04:15:27.478Z,29.90
2019-01-25T04:17:55.300Z,31.57
2019-01-25T04:20:23.686Z,30.25
2019-01-25T04:22:50.944Z,30.75
2019-01-25T04:25:19.355Z,32.28
2019-01-25T04:27:47.081Z,31.45
2019-01-25T04:30:19.339Z,31.12
2019-01-25T04:32:47.481Z,32.55
2019-01-25T04:35:15.039Z,31.05
2019-01-25T04:37:42.248Z,31.23
2019-01-25T04:40:12.246Z,31.23
2019-01-25T04:42:39.730Z,31.50
2019-01-25T04:45:08.556Z,31.40
2019-01-25T04:47:36.050Z,31.27
2019-01-25T04:50:05.654Z,29.80
2019-01-25T04:52:32.882Z,30.27
2019-01-25T04:55:06.648Z,30.20
2019-01-25T04:57:33.879Z,30.65
2019-01-25T05:00:01.145Z,30.95
2019-01-25T05:02:28.453Z,37.98
2019-01-25T05:04:55.703Z,35.10
2019-01-25T05:07:22.747Z,32.50
2019-01-25T05:09:50.308Z,31.45
2019-01-25T05:12:17.455Z,31.57
2019-01-25T05:14:44.754Z,31.27
2019-01-25T05:17:11.690Z,29.98
2019-01-25T05:19:39.780Z,31.25
2019-01-25T05:22:07.386Z,29.77
2019-01-25T05:24:35.066Z,31.40
2019-01-25T05:27:02.229Z,30.62
2019-01-25T05:29:54.791Z,30.80
2019-01-25T05:32:22.281Z,28.95
2019-01-25T05:34:49.563Z,32.48
2019-01-25T05:37:16.696Z,32.80
2019-01-25T05:39:44.513Z,31.95
2019-01-25T05:42:12.161Z,33.02
2019-01-25T05:44:39.524Z,30.40
2019-01-25T05:47:08.335Z,31.30
2019-01-25T05:49:35.281Z,30.70
2019-01-25T05:52:02.412Z,30.35
2019-01-25T05:54:30.185Z,32.10
2019-01-25T05:56:57.442Z,31.10
2019-01-25T05:59:24.899Z,31.40
2019-01-25T06:01:52.403Z,32.93
2019-01-25T06:04:19.881Z,32.05
2019-01-25T06:06:47.576Z,30.55
2019-01-25T06:09:19.467Z,31.87
2019-01-25T06:11:46.781Z,31.50
2019-01-25T06:14:13.937Z,30.77
2019-01-25T06:16:41.187Z,33.88
2019-01-25T06:19:08.308Z,31.80
2019-01-25T06:21:35.264Z,32.25
2019-01-25T06:24:02.367Z,31.52
2019-01-25T06:26:29.405Z,32.78
2019-01-25T06:28:56.984Z,32.67
2019-01-25T06:31:24.501Z,33.35
2019-01-25T06:33:51.835Z,32.85
2019-01-25T06:36:19.631Z,32.65
2019-01-25T06:38:46.971Z,33.15
2019-01-25T06:41:14.560Z,32.88
2019-01-25T06:43:42.023Z,34.20
2019-01-25T06:46:09.341Z,34.75
2019-01-25T06:48:36.295Z,33.75
2019-01-25T06:51:04.987Z,36.15
2019-01-25T06:53:32.667Z,34.03
2019-01-25T06:55:59.655Z,34.33
2019-01-25T06:58:41.797Z,36.00
2019-01-25T07:01:17.408Z,34.53
2019-01-25T07:03:44.534Z,34.75
2019-01-25T07:06:12.191Z,34.58
2019-01-25T07:08:39.482Z,33.65
2019-01-25T07:11:06.960Z,33.73
2019-01-25T07:13:34.400Z,33.48
2019-01-25T07:16:02.109Z,35.52
2019-01-25T07:18:29.431Z,33.73
2019-01-25T07:20:56.516Z,32.80
2019-01-25T07:23:23.766Z,32.95
2019-01-25T07:25:51.038Z,34.90
2019-01-25T07:28:18.949Z,33.38
2019-01-25T07:30:46.655Z,35.65
2019-01-25T07:33:14.149Z,32.90
2019-01-25T07:35:41.529Z,33.10
2019-01-25T07:38:09.334Z,34.33
2019-01-25T07:40:36.329Z,35.55
2019-01-25T07:43:03.722Z,34.98
2019-01-25T07:45:31.662Z,35.23
2019-01-25T07:47:59.319Z,34.75
2019-01-25T07:50:27.247Z,34.95
2019-01-25T07:52:54.401Z,33.15
2019-01-25T07:55:22.131Z,33.48
2019-01-25T07:57:49.770Z,35.30
2019-01-25T08:00:17.099Z,34.45
2019-01-25T08:02:44.850Z,35.70
2019-01-25T08:05:12.481Z,33.92
2019-01-25T08:07:40.468Z,35.35
2019-01-25T08:10:10.177Z,36.17
2019-01-25T08:12:37.577Z,34.88
2019-01-25T08:15:07.411Z,33.75
2019-01-25T08:17:34.964Z,34.73
2019-01-25T08:20:02.128Z,33.25
2019-01-25T08:22:29.331Z,35.33
2019-01-25T08:24:56.679Z,35.45
2019-01-25T08:27:24.123Z,35.78
2019-01-25T08:29:51.435Z,36.08
2019-01-25T08:32:19.012Z,37.65
2019-01-25T08:34:45.971Z,33.58
2019-01-25T08:37:12.889Z,35.43
2019-01-25T08:39:40.461Z,36.35
2019-01-25T08:42:07.351Z,34.90
2019-01-25T08:44:34.791Z,34.33
2019-01-25T08:47:02.193Z,36.28
2019-01-25T08:49:29.573Z,35.30
2019-01-25T08:51:56.957Z,36.25
2019-01-25T08:54:25.481Z,35.23
2019-01-25T08:56:53.183Z,35.98
2019-01-25T08:59:20.830Z,34.65
2019-01-25T09:01:48.084Z,36.33
2019-01-25T09:04:15.360Z,36.00
2019-01-25T09:06:43.580Z,35.00
2019-01-25T09:09:11.691Z,35.15
2019-01-25T09:11:39.230Z,35.95
2019-01-25T09:14:06.588Z,36.17
2019-01-25T09:16:34.190Z,34.55
2019-01-25T09:19:01.423Z,34.55
2019-01-25T09:21:28.804Z,36.17
2019-01-25T09:23:57.093Z,37.70
2019-01-25T09:26:26.223Z,35.63
2019-01-25T09:28:53.335Z,33.95
2019-01-25T09:31:20.727Z,34.78
2019-01-25T09:33:48.505Z,35.92
2019-01-25T09:36:28.851Z,33.80
2019-01-25T09:38:56.018Z,35.73
2019-01-25T09:41:23.442Z,35.78
2019-01-25T09:43:50.810Z,35.83
2019-01-25T09:46:18.103Z,34.88
2019-01-25T09:48:45.059Z,35.73
2019-01-25T09:51:12.130Z,34.75
2019-01-25T09:53:39.204Z,35.73
2019-01-25T09:56:06.647Z,36.10
2019-01-25T09:58:36.596Z,36.45
2019-01-25T10:01:07.003Z,35.92
2019-01-25T10:03:34.203Z,33.70
2019-01-25T10:06:01.910Z,36.63
2019-01-25T10:08:29.758Z,36.03
2019-01-25T10:10:57.176Z,35.05
2019-01-25T10:13:24.251Z,34.88
2019-01-25T10:15:51.404Z,35.70
2019-01-25T10:18:18.663Z,34.83
2019-01-25T10:20:46.069Z,34.50
2019-01-25T10:23:14.361Z,34.20
2019-01-25T10:25:41.726Z,34.83
2019-01-25T10:28:09.426Z,33.23
2019-01-25T10:30:36.740Z,34.83
2019-01-25T10:33:04.249Z,33.98
2019-01-25T10:35:43.803Z,36.80
2019-01-25T10:38:11.279Z,34.20
2019-01-25T10:40:39.033Z,33.38
2019-01-25T10:43:06.473Z,34.60
2019-01-25T10:45:35.847Z,34.58
2019-01-25T10:48:03.608Z,36.85
2019-01-25T10:50:30.935Z,36.30
2019-01-25T10:52:57.969Z,35.65
2019-01-25T10:55:25.431Z,32.67
2019-01-25T10:57:53.220Z,35.20
2019-01-25T11:00:20.999Z,34.03
2019-01-25T11:02:48.303Z,32.98
2019-01-25T11:05:18.511Z,34.60
2019-01-25T11:07:46.163Z,33.55
2019-01-25T11:10:13.354Z,35.20
2019-01-25T11:12:41.282Z,33.92
2019-01-25T11:15:10.691Z,34.03
2019-01-25T11:17:38.363Z,33.80
2019-01-25T11:20:09.917Z,33.98
2019-01-25T11:22:37.791Z,33.23
2019-01-25T11:25:06.664Z,33.13
2019-01-25T11:27:33.890Z,32.90
2019-01-25T11:30:02.109Z,32.78
2019-01-25T11:32:29.327Z,33.23
2019-01-25T11:34:56.931Z,31.68
2019-01-25T11:37:24.509Z,33.08
2019-01-25T11:39:51.571Z,33.03
2019-01-25T11:42:18.647Z,34.23
2019-01-25T11:44:45.816Z,31.60
2019-01-25T11:47:13.089Z,33.78
2019-01-25T11:49:40.597Z,30.80
2019-01-25T11:52:07.656Z,32.20
2019-01-25T11:54:35.229Z,32.13
2019-01-25T11:57:03.134Z,30.85
2019-01-25T11:59:30.681Z,31.63
2019-01-25T12:01:58.143Z,30.97
2019-01-25T12:04:25.649Z,31.50
2019-01-25T12:06:53.471Z,30.70
2019-01-25T12:09:20.826Z,30.07
2019-01-25T12:11:48.415Z,30.73
2019-01-25T12:14:15.527Z,30.53
2019-01-25T12:16:43.109Z,29.23
2019-01-25T12:19:10.850Z,28.60
2019-01-25T12:21:38.081Z,30.27
2019-01-25T12:24:05.268Z,29.93
2019-01-25T12:26:32.972Z,29.27
2019-01-25T12:29:00.115Z,25.30
2019-01-25T12:31:28.149Z,26.03
2019-01-25T12:33:55.255Z,24.23
2019-01-25T12:36:22.379Z,23.47
2019-01-25T12:38:49.658Z,23.43
2019-01-25T12:41:16.994Z,23.03
2019-01-25T12:43:44.094Z,22.45
2019-01-25T12:46:12.039Z,22.02
2019-01-25T12:48:39.419Z,21.52
2019-01-25T12:51:15.543Z,20.43
2019-01-25T12:53:43.324Z,22.62
2019-01-25T12:56:10.815Z,20.23
2019-01-25T12:58:38.622Z,20.70
2019-01-25T13:01:06.304Z,20.70
2019-01-25T13:03:34.019Z,19.85
2019-01-25T13:06:01.215Z,19.93
2019-01-25T13:08:29.023Z,17.98
2019-01-25T13:10:57.069Z,19.48
2019-01-25T13:13:31.361Z,18.92
2019-01-25T13:15:54.100Z,19.25
2019-01-25T13:18:21.133Z,19.07
2019-01-25T13:20:49.179Z,18.87
2019-01-25T13:23:16.896Z,15.65
2019-01-25T13:25:47.208Z,16.65
2019-01-25T13:28:14.971Z,16.48
2019-01-25T13:30:42.049Z,16.52
2019-01-25T13:33:09.256Z,16.62
2019-01-25T13:35:36.995Z,15.58
2019-01-25T13:38:04.566Z,14.40
2019-01-25T13:40:32.254Z,13.30
2019-01-25T13:42:59.190Z,13.10
2019-01-25T13:45:26.551Z,11.85
2019-01-25T13:47:53.694Z,9.17
2019-01-25T13:50:23.070Z,7.87
2019-01-25T13:52:50.831Z,7.83
2019-01-25T13:55:18.753Z,8.73
2019-01-25T13:57:45.958Z,9.90
2019-01-25T14:00:24.375Z,10.75
2019-01-25T14:02:51.770Z,11.20
2019-01-25T14:05:19.587Z,11.20
2019-01-25T14:07:46.943Z,9.98
2019-01-25T14:10:17.912Z,10.77
2019-01-25T14:12:45.339Z,11.90
2019-01-25T14:15:12.717Z,10.65
2019-01-25T14:17:40.180Z,11.57
2019-01-25T14:20:11.675Z,11.60
2019-01-25T14:22:38.774Z,11.03
2019-01-25T14:25:07.038Z,11.78
2019-01-25T14:27:34.440Z,12.82
2019-01-25T14:30:01.566Z,12.98
2019-01-25T14:32:30.739Z,15.63
2019-01-25T14:34:58.150Z,24.27
2019-01-25T14:37:25.293Z,21.73
2019-01-25T14:39:52.842Z,18.32
2019-01-25T14:42:20.278Z,18.20
2019-01-25T14:44:47.769Z,19.15
2019-01-25T14:47:15.008Z,19.60
2019-01-25T14:49:42.622Z,19.42
2019-01-25T14:52:09.662Z,19.12
2019-01-25T14:54:37.086Z,18.98
2019-01-25T14:57:05.108Z,18.30
2019-01-25T14:59:32.764Z,18.60
2019-01-25T15:02:00.356Z,17.45
2019-01-25T15:04:27.694Z,16.42
2019-01-25T15:06:55.861Z,18.05
2019-01-25T15:09:22.808Z,17.92
2019-01-25T15:11:49.853Z,17.42
2019-01-25T15:14:17.362Z,17.45
2019-01-25T15:16:57.439Z,16.73
2019-01-25T15:19:24.706Z,17.52
2019-01-25T15:21:52.278Z,17.85
2019-01-25T15:24:19.852Z,18.27
2019-01-25T15:26:47.312Z,16.97
2019-01-25T15:29:14.277Z,17.90
2019-01-25T15:31:41.393Z,17.40
2019-01-25T15:34:08.476Z,22.52
2019-01-25T15:36:36.061Z,18.80
2019-01-25T15:39:07.143Z,17.17
2019-01-25T15:41:34.679Z,17.35
2019-01-25T15:44:09.830Z,17.37
2019-01-25T15:46:32.955Z,17.80
2019-01-25T15:49:00.497Z,16.77
2019-01-25T15:51:27.547Z,17.95
2019-01-25T15:53:54.788Z,17.80
2019-01-25T15:56:22.306Z,18.60
2019-01-25T15:58:49.667Z,17.37
2019-01-25T16:01:17.236Z,17.73
2019-01-25T16:03:46.173Z,18.53
2019-01-25T16:06:13.541Z,17.23
2019-01-25T16:08:41.175Z,16.60
2019-01-25T16:11:08.431Z,18.40
2019-01-25T16:13:35.819Z,17.85
2019-01-25T16:16:03.304Z,17.33
2019-01-25T16:18:31.076Z,16.12
2019-01-25T16:20:58.627Z,15.65
2019-01-25T16:23:25.820Z,16.63
2019-01-25T16:25:53.095Z,16.33
2019-01-25T16:28:20.795Z,16.02
2019-01-25T16:30:48.180Z,15.53
2019-01-25T16:33:15.119Z,17.53
2019-01-25T16:35:42.683Z,20.50
2019-01-25T16:38:10.223Z,23.30
2019-01-25T16:40:38.287Z,23.93
2019-01-25T16:43:07.827Z,25.27
2019-01-25T16:45:40.479Z,24.47
2019-01-25T16:48:07.699Z,24.20
2019-01-25T16:50:35.920Z,26.42
2019-01-25T16:53:03.775Z,24.47
2019-01-25T16:55:31.091Z,24.95
2019-01-25T16:57:58.703Z,26.20
2019-01-25T17:00:34.444Z,26.95
2019-01-25T17:03:02.031Z,25.00
2019-01-25T17:05:29.459Z,25.55
2019-01-25T17:07:56.781Z,25.95
2019-01-25T17:10:24.678Z,27.02
2019-01-25T17:12:52.605Z,27.00
2019-01-25T17:15:19.879Z,27.75
2019-01-25T17:17:47.282Z,26.10
2019-01-25T17:20:20.017Z,25.88
2019-01-25T17:22:45.078Z,26.75
2019-01-25T17:25:12.571Z,26.60
2019-01-25T17:27:40.255Z,26.52
2019-01-25T17:30:14.507Z,26.48
2019-01-25T17:32:42.279Z,27.45
2019-01-25T17:35:09.332Z,26.37
2019-01-25T17:37:36.944Z,25.80
2019-01-25T17:40:06.907Z,25.57
2019-01-25T17:42:34.324Z,24.82
2019-01-25T17:45:21.629Z,25.97
2019-01-25T17:47:49.244Z,25.95
2019-01-25T17:50:16.640Z,24.55
2019-01-25T17:52:43.938Z,26.27
2019-01-25T17:55:11.470Z,25.90
2019-01-25T17:57:38.738Z,36.48
2019-01-25T18:00:15.742Z,26.60
2019-01-25T18:02:43.172Z,25.15
2019-01-25T18:05:10.336Z,26.05
2019-01-25T18:07:38.153Z,25.97
2019-01-25T18:10:07.708Z,25.65
2019-01-25T18:12:35.143Z,26.20
2019-01-25T18:15:02.559Z,25.48
2019-01-25T18:17:34.254Z,25.90
2019-01-25T18:20:01.459Z,26.93
2019-01-25T18:22:28.775Z,27.13
2019-01-25T18:24:56.975Z,26.17
2019-01-25T18:27:24.002Z,25.43
2019-01-25T18:29:56.170Z,26.00
2019-01-25T18:32:23.717Z,25.88
2019-01-25T18:34:51.422Z,25.35
2019-01-25T18:37:18.976Z,25.30
2019-01-25T18:39:46.145Z,24.35
2019-01-25T18:42:13.448Z,24.98
2019-01-25T18:44:41.202Z,25.57
2019-01-25T18:47:09.207Z,24.45
2019-01-25T18:49:36.531Z,23.75
2019-01-25T18:52:04.083Z,24.07
2019-01-25T18:54:31.698Z,23.45
2019-01-25T18:57:02.198Z,24.43
2019-01-25T18:59:29.904Z,24.18
2019-01-25T19:01:59.183Z,25.10
2019-01-25T19:04:26.684Z,23.60
2019-01-25T19:06:53.863Z,23.95
2019-01-25T19:09:21.011Z,23.32
2019-01-25T19:11:48.391Z,23.50
2019-01-25T19:14:15.883Z,23.47
2019-01-25T19:16:43.435Z,22.82
2019-01-25T19:19:10.591Z,23.67
2019-01-25T19:21:38.369Z,24.40
2019-01-25T19:24:05.508Z,22.90
2019-01-25T19:26:33.311Z,22.70
2019-01-25T19:29:01.166Z,22.62
2019-01-25T19:31:30.617Z,23.42
2019-01-25T19:33:58.555Z,22.40
2019-01-25T19:36:26.339Z,23.40
2019-01-25T19:38:53.832Z,23.73
2019-01-25T19:41:21.538Z,21.90
2019-01-25T19:43:49.111Z,23.65
2019-01-25T19:46:17.157Z,23.07
2019-01-25T19:48:44.104Z,22.32
2019-01-25T19:51:11.659Z,22.65
2019-01-25T19:53:39.166Z,23.50
2019-01-25T19:56:07.351Z,23.32
2019-01-25T19:58:34.843Z,20.72
2019-01-25T20:01:02.619Z,21.85
2019-01-25T20:03:31.111Z,22.58
2019-01-25T20:05:58.575Z,22.30
2019-01-25T20:08:26.091Z,21.55
2019-01-25T20:10:55.020Z,21.73
2019-01-25T20:13:22.848Z,22.05
2019-01-25T20:15:50.094Z,21.82
2019-01-25T20:18:17.678Z,23.30
2019-01-25T20:20:45.114Z,22.07
2019-01-25T20:23:12.260Z,21.40
2019-01-25T20:25:40.029Z,22.05
2019-01-25T20:28:07.975Z,23.85
2019-01-25T20:30:35.455Z,23.20
2019-01-25T20:33:02.960Z,23.83
2019-01-25T20:35:32.351Z,23.20
2019-01-25T20:37:59.451Z,22.17
2019-01-25T20:40:26.628Z,31.00
2019-01-25T20:42:54.358Z,23.02
2019-01-25T20:45:27.195Z,21.87
2019-01-25T20:47:54.740Z,22.73
2019-01-25T20:50:24.094Z,22.35
2019-01-25T20:52:51.513Z,22.17
2019-01-25T20:55:19.167Z,22.62
2019-01-25T20:57:47.151Z,22.77
2019-01-25T21:00:19.847Z,22.80
2019-01-25T21:02:47.535Z,23.80
2019-01-25T21:05:14.756Z,24.72
2019-01-25T21:07:42.175Z,23.47
2019-01-25T21:10:11.613Z,24.92
2019-01-25T21:12:38.559Z,22.48
2019-01-25T21:15:07.654Z,24.25
2019-01-25T21:17:35.225Z,24.47
2019-01-25T21:20:03.505Z,22.60
2019-01-25T21:22:30.959Z,23.35
2019-01-25T21:24:57.968Z,22.67
2019-01-25T21:27:25.015Z,22.65
2019-01-25T21:29:52.048Z,23.12
2019-01-25T21:32:19.259Z,23.07
2019-01-25T21:34:46.731Z,23.67
2019-01-25T21:37:14.071Z,23.98
2019-01-25T21:39:41.518Z,23.18
2019-01-25T21:42:08.967Z,22.13
2019-01-25T21:44:36.297Z,21.93
2019-01-25T21:47:03.766Z,20.88
2019-01-25T21:49:30.875Z,22.25
2019-01-25T21:51:58.244Z,22.37
2019-01-25T21:54:25.638Z,21.27
2019-01-25T21:56:52.999Z,21.73
2019-01-25T21:59:21.263Z,21.12
2019-01-25T22:01:48.955Z,20.80
2019-01-25T22:04:16.233Z,20.80
2019-01-25T22:06:43.487Z,20.48
2019-01-25T22:09:11.635Z,20.90
2019-01-25T22:11:39.221Z,20.72
2019-01-25T22:14:06.434Z,21.57
2019-01-25T22:16:33.605Z,33.92
2019-01-25T22:19:01.248Z,23.75
2019-01-25T22:21:28.516Z,22.70
2019-01-25T22:23:55.663Z,19.85
2019-01-25T22:26:22.836Z,19.80
2019-01-25T22:28:50.354Z,19.35
2019-01-25T22:31:17.512Z,19.70
2019-01-25T22:33:44.656Z,18.87
2019-01-25T22:36:11.741Z,19.10
2019-01-25T22:38:39.086Z,18.95
2019-01-25T22:41:06.463Z,19.07
2019-01-25T22:43:33.478Z,18.42
2019-01-25T22:46:01.351Z,19.57
2019-01-25T22:48:28.573Z,18.75
2019-01-25T22:50:55.730Z,18.82
2019-01-25T22:53:22.856Z,18.85
2019-01-25T22:55:50.467Z,17.45
2019-01-25T22:58:17.870Z,17.60
2019-01-25T23:01:07.838Z,18.48
2019-01-25T23:03:38.492Z,17.62
2019-01-25T23:06:25.294Z,17.57
2019-01-25T23:08:53.034Z,18.45
2019-01-25T23:11:20.599Z,17.87
2019-01-25T23:13:47.527Z,18.73
2019-01-25T23:16:14.652Z,17.92
2019-01-25T23:18:41.923Z,18.05
2019-01-25T23:21:09.275Z,17.77
2019-01-25T23:23:36.460Z,17.57
2019-01-25T23:26:04.580Z,17.87
2019-01-25T23:28:32.820Z,20.17
2019-01-25T23:31:01.603Z,22.98
2019-01-25T23:33:29.510Z,18.07
2019-01-25T23:35:56.494Z,17.45
2019-01-25T23:38:23.679Z,16.42
2019-01-25T23:40:51.183Z,16.17
2019-01-25T23:43:18.321Z,17.37
2019-01-25T23:45:45.434Z,16.95
2019-01-25T23:48:12.827Z,16.30
2019-01-25T23:50:39.877Z,15.53
2019-01-25T23:53:07.219Z,16.30
2019-01-25T23:55:34.503Z,17.30
2019-01-25T23:58:02.035Z,17.42
